ADDS METAR Data INFO
IDs: Format: Raw Decoded Include TAF

Data at: 0917 UTC 17 Oct 2017

KEUG 170854Z AUTO 19005KT 6SM BR CLR 06/06 A3011 RMK AO2 SLP196 T00560056 56004
KEUG 170754Z AUTO 18004KT 9SM CLR 06/06 A3011 RMK AO2 SLP198 T00560056 402000011
KEUG 170654Z AUTO 20006KT 10SM CLR 07/07 A3011 RMK AO2 SLP198 T00670067
KEUG 170554Z 22004KT 8SM CLR 07/07 A3012 RMK AO2 SLP200 T00720072 10189 20067 58005
KEUG 170454Z 19004KT 10SM CLR 07/07 A3013 RMK AO2 SLP206 T00720067
KEUG 170354Z 00000KT 10SM CLR 09/08 A3013 RMK AO2 SLP206 T00890078
KEUG 170254Z 28003KT 10SM CLR 12/09 A3014 RMK AO2 SLP207 T01170094 56008
KEUG 170154Z 00000KT 10SM FEW250 14/11 A3014 RMK AO2 SLP207 T01440106
KEUG 170054Z 03003KT 10SM FEW250 17/11 A3014 RMK AO2 SLP208 T01720106
KEUG 162354Z 04005KT 10SM FEW250 19/09 A3016 RMK AO2 SLP214 T01890089 10200 20100 56016
KEUG 162254Z 01004KT 10SM FEW250 19/08 A3017 RMK AO2 SLP218 T01940078
KEUG 162154Z VRB03KT 10SM FEW250 19/09 A3019 RMK AO2 SLP223 T01890094
KEUG 162054Z VRB03KT 10SM FEW250 17/09 A3021 RMK AO2 SLP230 T01670089 58021 $
KEUG 161954Z 12003KT 10SM FEW200 16/09 A3023 RMK AO2 SLP238 T01560094 $
KEUG 161854Z 00000KT 10SM FEW200 13/09 A3025 RMK AO2 SLP245 T01280089 $
KEUG 161754Z 00000KT 10SM FEW200 FEW250 10/08 A3027 RMK AO2 SLP252 T01000083 10100 20011 50003 $
KEUG 161709Z 00000KT 9SM SCT002 07/07 A3027 RMK AO2 T00670067 $
KEUG 161654Z 00000KT 1SM R16R/0800VP6000FT BCFG BKN002 06/06 A3027 RMK AO2 SLP253 T00560056 $
KEUG 161651Z 00000KT 1SM R16R/0800V3000FT BR BKN002 06/06 A3027 RMK AO2 $
KEUG 161645Z 00000KT 1/2SM R16R/0600V1000FT FG OVC002 06/06 A3027 RMK AO2 FG OVC002 T00560056 $
KEUG 161554Z 00000KT 1/8SM R16R/0500V0700FT FG VV001 04/04 A3027 RMK AO2 SLP252 T00390039 $
KEUG 161454Z 25003KT 1/4SM R16R/1000V1400FT FG BKN002 01/01 A3026 RMK AO2 SLP249 FG BKN002 T00110011 51007 $
KEUG 161446Z 23004KT 1/4SM R16R/1400V2000FT FG BKN002 01/01 A3026 RMK AO2 T00110011 $
KEUG 161434Z 24004KT 1/4SM R16R/1800V4000FT BCFG SCT002 SCT250 01/01 A3026 RMK AO2 T00110011 $
KEUG 161426Z 23004KT 1SM R16R/3000V5500FT BCFG SCT002 SCT250 01/01 A3025 RMK AO2 T00110011 $
KEUG 161356Z 20004KT 5SM R16R/4500VP6000FT MIFG FEW002 01/01 A3025 RMK AO2 T00110011
KEUG 161354Z 20004KT 1SM R16R/4500VP6000FT MIFG VV003 01/01 A3025 RMK AO2 SLP246 T00110011
KEUG 161324Z 20003KT 1SM R16R/4500VP6000FT MIFG BKN002 02/02 A3025 RMK AO2 T00220022 $
KEUG 161254Z 00000KT 3/4SM R16R/2600V3500FT BCFG BKN002 02/02 A3025 RMK AO2 SLP244 T00170017 $
KEUG 161236Z AUTO 00000KT 1/2SM R16R/2800VP6000FT FG VV002 01/01 A3024 RMK AO2 T00110011 $
KEUG 161154Z AUTO 00000KT 1/2SM R16R/2000V2600FT FG VV001 01/01 A3024 RMK AO2 SLP241 T00110011 10056 20011 55004 $
KEUG 161132Z AUTO 00000KT 1/2SM R16R/2000V3000FT FG VV001 01/01 A3024 RMK AO2 T00110011 $
KEUG 161111Z AUTO 00000KT 1/4SM R16R/1200V1800FT FG VV001 02/02 A3024 RMK AO2 T00220022 $
KEUG 161054Z AUTO 21003KT 1/2SM R16R/1600VP6000FT FG VV001 02/02 A3024 RMK AO2 SLP239 T00220022 $
KEUG 161049Z AUTO 22003KT 1/4SM R16R/1600V4500FT FG VV001 02/02 A3024 RMK AO2 $
KEUG 161045Z AUTO 00000KT 1/2SM R16R/1600V2200FT FG VV001 02/02 A3024 RMK AO2 T00220022 $
KEUG 161042Z AUTO 00000KT 1SM R16R/1600V5000FT BR VV001 02/02 A3024 RMK AO2 VIS 1/4V2 1/2 T00220022 $
KEUG 161040Z AUTO 00000KT 1 3/4SM R16R/1600VP6000FT BR SCT002 03/03 A3024 RMK AO2 VIS 1 RNW 34 T00280028 $
KEUG 161034Z AUTO 22003KT 3SM R16R/3000VP6000FT BR FEW002 03/03 A3024 RMK AO2 VIS 1 1/2 RNW 34 T00280028 $
KEUG 161025Z AUTO 21004KT 2 1/2SM BR CLR 03/03 A3024 RMK AO2 VIS 1 3/4 RNW 34 T00280028 $
KEUG 161001Z AUTO 00000KT 4SM BR CLR 02/02 A3025 RMK AO2 T00220022 $
KEUG 160954Z AUTO 00000KT 2 1/2SM BR CLR 03/03 A3025 RMK AO2 VIS 1 1/4 RNW 34 SLP245 T00330033 $
KEUG 160905Z AUTO 21005KT 4SM R16R/2400VP6000FT BR CLR 03/03 A3025 RMK AO2 VIS 1 RNW 34 T00330033 $
KEUG 160858Z AUTO 22003KT 2SM R16R/2400VP6000FT BR CLR 03/03 A3025 RMK AO2 VIS 1 RNW 34 T00330033 $
KEUG 160854Z AUTO 22003KT 1SM R16R/3000VP6000FT BR CLR 03/03 A3025 RMK AO2 SLP245 T00330033 51000 $
KEUG 160838Z AUTO 22003KT 1/4SM R16R/P6000FT FG CLR 04/04 A3026 RMK AO2 T00390039 $
KEUG 160829Z AUTO 22003KT 3/4SM R16R/2800VP6000FT BR VV003 04/04 A3025 RMK AO2 T00390039 $
KEUG 160816Z AUTO 23003KT 1 1/4SM R16R/2000VP6000FT BR FEW003 04/04 A3025 RMK AO2 VIS 1/2 RNW 34 T00390039 $
KEUG 160811Z AUTO 23003KT 2 1/2SM R16R/1800VP6000FT BR FEW003 04/04 A3025 RMK AO2 VIS 3/4 RNW 34 T00390039 $
KEUG 160754Z AUTO 20004KT 8SM CLR 04/04 A3025 RMK AO2 VIS 2 RNW 34 SLP245 T00390039 401670000 $
KEUG 160654Z AUTO 00000KT 6SM BR CLR 05/04 A3025 RMK AO2 VIS 3/4 RNW 34 SLP246 T00500044 $
KEUG 160554Z 21004KT 7SM CLR 06/05 A3026 RMK AO2 SLP247 T00560050 10167 20050 51010 $
KEUG 160454Z 14005KT 8SM FEW220 06/06 A3025 RMK AO2 SLP245 T00610056 $
KEUG 160354Z 00000KT 9SM FEW230 07/06 A3023 RMK AO2 SLP240 T00720061 $
KEUG 160254Z 29003KT 10SM FEW230 SCT300 09/08 A3023 RMK AO2 SLP238 T00940078 53004 $
KEUG 160154Z 01003KT 10SM FEW004 SCT230 SCT300 12/08 A3022 RMK AO2 SLP235 FU FEW004 FU LYR DSNT S-SW T01170083 $
KEUG 160054Z 03005KT 10SM FEW005 SCT180 SCT240 BKN300 15/08 A3021 RMK AO2 SLP231 FU FEW005 CCSL W-OHD T01500083 $
KEUG 152354Z 01006KT 10SM FEW006 SCT160 SCT280 17/07 A3021 RMK AO2 SLP232 FU FEW006 FU LYR VCNTY SE-S T01670072 10167 20083 56012 $
KEUG 152344Z 36005KT 10SM FEW006 SCT160 SCT280 17/07 A3022 RMK AO2 FU FEW006 FU LYR VCNTY SE-S T01670072 $
KEUG 152254Z 01004KT 10SM FEW160 SCT260 16/07 A3023 RMK AO2 SLP237 T01610072 $
KEUG 152154Z 35007KT 10SM FEW160 FEW250 16/07 A3024 RMK AO2 SLP239 T01560072 $